Date,TemperatureHighF,TemperatureAvgF,TemperatureLowF,DewpointHighF,DewpointAvgF,DewpointLowF,HumidityHigh,HumidityAvg,HumidityLow,PressureMaxIn,PressureMinIn,WindSpeedMaxMPH,WindSpeedAvgMPH,GustSpeedMaxMPH,PrecipitationSumIn
2013-8-1,65.0,59.1,54.2,57.8,55.3,53.1,97,87,75,30.14,30.09,13,3,13,0.00
2013-8-2,61.3,59.2,57.9,58.2,56.0,53.8,96,89,79,30.19,30.12,12,2,12,0.07
2013-8-3,72.0,63.5,57.9,61.2,58.9,56.9,97,86,67,30.18,30.11,11,1,11,0.02
2013-8-4,81.5,68.5,57.8,64.3,59.9,55.6,95,76,52,30.11,29.99,11,2,13,0.00
2013-8-5,85.2,71.9,57.6,63.3,58.6,53.2,95,66,35,30.06,29.97,12,2,12,0.00
2013-8-6,87.2,70.7,55.5,61.0,56.0,45.5,95,64,27,30.05,29.96,12,2,12,0.00
2013-8-7,85.5,70.3,55.5,60.3,56.0,52.6,91,64,36,30.06,29.99,13,2,13,0.00
2013-8-8,80.8,67.5,55.8,61.1,57.8,51.4,94,73,50,30.08,29.98,13,2,13,0.00
2013-8-9,80.7,69.3,57.2,61.1,57.6,51.7,92,68,46,30.00,29.89,17,2,17,0.00
2013-8-10,77.2,67.6,59.1,64.3,61.2,57.4,96,81,61,30.06,29.94,11,2,11,0.06
2013-8-11,75.9,65.4,57.6,60.0,57.0,54.1,90,75,55,30.11,30.04,16,2,16,0.00
2013-8-12,77.2,66.6,58.6,58.9,56.4,54.2,90,71,50,30.12,30.05,14,2,14,0.00
2013-8-13,82.3,68.0,55.1,58.0,55.6,50.7,93,67,35,30.15,29.97,13,2,13,0.00
2013-8-14,80.3,67.6,58.6,61.5,57.8,54.2,94,73,42,30.03,29.96,12,2,12,0.03
2013-8-15,69.1,62.4,61.9,66.7,56.2,-99.9,97,90,87,30.05,29.97,5,-44,5,0.11
2013-8-16,82.3,71.1,62.3,66.2,61.3,49.7,98,74,34,30.07,30.00,14,2,14,0.01
2013-8-17,76.8,68.5,62.4,62.0,58.3,54.5,81,70,54,30.12,30.06,16,3,16,0.00
2013-8-18,77.3,67.1,59.5,59.9,57.4,53.2,86,72,54,30.17,30.11,16,3,16,0.00
2013-8-19,77.7,66.6,59.3,59.6,56.2,51.2,89,70,50,30.16,30.10,16,2,16,0.00
2013-8-20,75.0,65.7,58.2,57.6,52.8,48.8,75,64,50,30.21,30.11,17,4,17,0.00
2013-8-21,80.2,67.2,51.8,57.5,53.5,48.1,89,63,44,30.14,29.98,15,2,15,0.00
2013-8-22,81.8,69.7,55.3,60.1,55.7,51.0,87,63,44,29.99,29.85,11,2,11,0.00
2013-8-23,72.2,65.0,59.7,66.3,57.1,54.3,100,76,62,29.94,29.88,13,3,13,0.00
2013-8-24,74.3,63.0,57.9,59.0,50.6,-99.9,95,71,44,29.97,29.90,11,-30,11,0.01
2013-8-25,70.2,63.1,56.0,59.7,55.1,50.6,92,76,61,29.99,29.92,9,1,10,0.00
2013-8-26,73.2,61.2,58.2,59.6,49.9,-99.9,93,76,51,30.01,29.91,18,-47,18,0.03
2013-8-27,77.4,64.8,59.3,61.4,52.2,-99.9,94,72,56,30.01,29.84,13,-43,13,0.00
2013-8-28,78.5,63.1,59.5,64.4,48.3,-99.9,97,73,58,29.95,29.87,9,-78,9,0.28
2013-8-29,75.8,61.9,62.7,67.3,53.5,-99.9,100,87,72,30.08,29.89,28,-61,28,1.30
2013-8-30,78.7,67.2,60.1,63.2,58.6,53.2,97,76,44,30.21,30.08,11,2,11,0.00
2013-8-31,80.9,66.6,52.9,61.1,57.6,51.8,97,75,48,30.13,29.88,13,2,13,0.00